sensor_id;sensor_type;location;lat;lon;timestamp;P1;durP1;ratioP1;P2;durP2;ratioP2
62957;SDS011;49056;48.352;10.926;2022-12-05T00:03:32;3.30;;;1.40;;
62957;SDS011;49056;48.352;10.926;2022-12-05T00:08:53;2.28;;;1.30;;
62957;SDS011;49056;48.352;10.926;2022-12-05T00:14:14;3.67;;;1.25;;
62957;SDS011;49056;48.352;10.926;2022-12-05T00:19:34;2.63;;;1.50;;
62957;SDS011;49056;48.352;10.926;2022-12-05T00:24:55;4.47;;;1.63;;
62957;SDS011;49056;48.352;10.926;2022-12-05T00:30:15;2.85;;;1.65;;
62957;SDS011;49056;48.352;10.926;2022-12-05T00:35:35;3.15;;;1.58;;
62957;SDS011;49056;48.352;10.926;2022-12-05T00:41:00;3.78;;;1.70;;
62957;SDS011;49056;48.352;10.926;2022-12-05T00:46:22;2.35;;;1.05;;
62957;SDS011;49056;48.352;10.926;2022-12-05T00:51:43;2.53;;;1.50;;
62957;SDS011;49056;48.352;10.926;2022-12-05T00:57:04;2.55;;;1.73;;
62957;SDS011;49056;48.352;10.926;2022-12-05T01:02:24;3.45;;;1.58;;
62957;SDS011;49056;48.352;10.926;2022-12-05T01:07:44;3.35;;;1.58;;
62957;SDS011;49056;48.352;10.926;2022-12-05T01:13:04;2.45;;;1.42;;
62957;SDS011;49056;48.352;10.926;2022-12-05T01:18:25;2.73;;;1.57;;
62957;SDS011;49056;48.352;10.926;2022-12-05T01:23:46;2.72;;;1.30;;
62957;SDS011;49056;48.352;10.926;2022-12-05T01:29:07;3.00;;;1.62;;
62957;SDS011;49056;48.352;10.926;2022-12-05T01:34:27;3.15;;;1.42;;
62957;SDS011;49056;48.352;10.926;2022-12-05T01:39:48;2.43;;;1.13;;
62957;SDS011;49056;48.352;10.926;2022-12-05T01:45:15;2.40;;;1.30;;
62957;SDS011;49056;48.352;10.926;2022-12-05T01:50:37;2.35;;;1.15;;
62957;SDS011;49056;48.352;10.926;2022-12-05T01:55:57;2.85;;;1.70;;
62957;SDS011;49056;48.352;10.926;2022-12-05T02:01:18;2.80;;;1.30;;
62957;SDS011;49056;48.352;10.926;2022-12-05T02:06:39;2.28;;;1.42;;
62957;SDS011;49056;48.352;10.926;2022-12-05T02:12:00;3.90;;;2.00;;
62957;SDS011;49056;48.352;10.926;2022-12-05T02:17:39;2.72;;;1.77;;
62957;SDS011;49056;48.352;10.926;2022-12-05T02:23:03;3.65;;;1.67;;
62957;SDS011;49056;48.352;10.926;2022-12-05T02:39:50;3.30;;;1.37;;
62957;SDS011;49056;48.352;10.926;2022-12-05T02:45:13;3.60;;;1.65;;
62957;SDS011;49056;48.352;10.926;2022-12-05T02:50:35;5.55;;;1.67;;
62957;SDS011;49056;48.352;10.926;2022-12-05T02:55:56;2.90;;;2.08;;
62957;SDS011;49056;48.352;10.926;2022-12-05T03:01:17;3.75;;;1.80;;
62957;SDS011;49056;48.352;10.926;2022-12-05T03:06:42;2.95;;;1.40;;
62957;SDS011;49056;48.352;10.926;2022-12-05T03:17:28;5.40;;;2.08;;
62957;SDS011;49056;48.352;10.926;2022-12-05T03:22:51;3.22;;;1.65;;
62957;SDS011;49056;48.352;10.926;2022-12-05T03:28:23;2.37;;;1.40;;
62957;SDS011;49056;48.352;10.926;2022-12-05T03:33:44;3.92;;;1.90;;
62957;SDS011;49056;48.352;10.926;2022-12-05T03:44:41;3.80;;;1.77;;
62957;SDS011;49056;48.352;10.926;2022-12-05T03:56:01;2.28;;;1.33;;
62957;SDS011;49056;48.352;10.926;2022-12-05T04:01:23;2.75;;;1.58;;
62957;SDS011;49056;48.352;10.926;2022-12-05T04:06:45;2.83;;;1.40;;
62957;SDS011;49056;48.352;10.926;2022-12-05T04:12:09;2.85;;;1.77;;
62957;SDS011;49056;48.352;10.926;2022-12-05T04:17:33;4.57;;;1.98;;
62957;SDS011;49056;48.352;10.926;2022-12-05T04:22:55;4.47;;;1.62;;
62957;SDS011;49056;48.352;10.926;2022-12-05T04:33:49;2.08;;;1.33;;
62957;SDS011;49056;48.352;10.926;2022-12-05T04:39:18;2.72;;;1.85;;
62957;SDS011;49056;48.352;10.926;2022-12-05T04:44:41;4.93;;;1.67;;
62957;SDS011;49056;48.352;10.926;2022-12-05T04:50:03;3.03;;;1.55;;
62957;SDS011;49056;48.352;10.926;2022-12-05T04:55:24;2.78;;;1.25;;
62957;SDS011;49056;48.352;10.926;2022-12-05T05:01:08;3.33;;;1.83;;
62957;SDS011;49056;48.352;10.926;2022-12-05T05:06:25;3.42;;;1.50;;
62957;SDS011;49056;48.352;10.926;2022-12-05T05:11:46;3.47;;;1.73;;
62957;SDS011;49056;48.352;10.926;2022-12-05T05:17:07;4.07;;;1.48;;
62957;SDS011;49056;48.352;10.926;2022-12-05T05:22:27;2.15;;;1.33;;
62957;SDS011;49056;48.352;10.926;2022-12-05T05:27:49;1.67;;;1.30;;
62957;SDS011;49056;48.352;10.926;2022-12-05T05:33:10;2.42;;;1.23;;
62957;SDS011;49056;48.352;10.926;2022-12-05T05:38:33;3.53;;;1.95;;
62957;SDS011;49056;48.352;10.926;2022-12-05T05:43:54;3.75;;;1.75;;
62957;SDS011;49056;48.352;10.926;2022-12-05T05:49:14;2.87;;;1.20;;
62957;SDS011;49056;48.352;10.926;2022-12-05T05:54:34;3.67;;;1.73;;
62957;SDS011;49056;48.352;10.926;2022-12-05T05:59:55;2.40;;;1.20;;
62957;SDS011;49056;48.352;10.926;2022-12-05T06:05:15;2.00;;;1.23;;
62957;SDS011;49056;48.352;10.926;2022-12-05T06:10:37;3.08;;;1.20;;
62957;SDS011;49056;48.352;10.926;2022-12-05T06:15:57;2.22;;;1.33;;
62957;SDS011;49056;48.352;10.926;2022-12-05T06:21:18;3.33;;;1.93;;
62957;SDS011;49056;48.352;10.926;2022-12-05T06:26:38;3.53;;;1.73;;
62957;SDS011;49056;48.352;10.926;2022-12-05T06:31:58;2.15;;;0.90;;
62957;SDS011;49056;48.352;10.926;2022-12-05T06:37:19;2.15;;;1.00;;
62957;SDS011;49056;48.352;10.926;2022-12-05T06:42:39;2.90;;;1.30;;
62957;SDS011;49056;48.352;10.926;2022-12-05T06:48:00;2.05;;;1.00;;
62957;SDS011;49056;48.352;10.926;2022-12-05T06:53:20;2.50;;;1.20;;
62957;SDS011;49056;48.352;10.926;2022-12-05T06:58:41;3.47;;;1.42;;
62957;SDS011;49056;48.352;10.926;2022-12-05T07:04:02;1.77;;;1.05;;
62957;SDS011;49056;48.352;10.926;2022-12-05T07:09:23;2.55;;;1.58;;
62957;SDS011;49056;48.352;10.926;2022-12-05T07:15:05;2.72;;;1.33;;
62957;SDS011;49056;48.352;10.926;2022-12-05T07:20:25;4.18;;;1.55;;
62957;SDS011;49056;48.352;10.926;2022-12-05T07:25:45;3.30;;;2.05;;
62957;SDS011;49056;48.352;10.926;2022-12-05T07:31:06;1.98;;;1.02;;
62957;SDS011;49056;48.352;10.926;2022-12-05T07:36:27;2.80;;;1.15;;
62957;SDS011;49056;48.352;10.926;2022-12-05T07:41:47;3.77;;;1.10;;
62957;SDS011;49056;48.352;10.926;2022-12-05T07:47:08;2.47;;;1.20;;
62957;SDS011;49056;48.352;10.926;2022-12-05T07:52:28;2.13;;;1.33;;
62957;SDS011;49056;48.352;10.926;2022-12-05T07:57:49;2.28;;;1.40;;
62957;SDS011;49056;48.352;10.926;2022-12-05T08:03:09;4.40;;;1.80;;
62957;SDS011;49056;48.352;10.926;2022-12-05T08:08:29;2.35;;;1.17;;
62957;SDS011;49056;48.352;10.926;2022-12-05T08:13:50;2.60;;;1.08;;
62957;SDS011;49056;48.352;10.926;2022-12-05T08:19:11;2.23;;;0.90;;
62957;SDS011;49056;48.352;10.926;2022-12-05T08:24:36;2.47;;;1.27;;
62957;SDS011;49056;48.352;10.926;2022-12-05T08:29:56;3.22;;;1.55;;
62957;SDS011;49056;48.352;10.926;2022-12-05T08:35:16;2.17;;;1.25;;
62957;SDS011;49056;48.352;10.926;2022-12-05T08:40:37;1.30;;;1.00;;
62957;SDS011;49056;48.352;10.926;2022-12-05T08:45:57;2.62;;;1.20;;
62957;SDS011;49056;48.352;10.926;2022-12-05T08:51:18;2.10;;;1.15;;
62957;SDS011;49056;48.352;10.926;2022-12-05T08:56:39;2.00;;;1.17;;
62957;SDS011;49056;48.352;10.926;2022-12-05T09:01:59;3.22;;;1.37;;
62957;SDS011;49056;48.352;10.926;2022-12-05T09:07:19;2.47;;;0.97;;
62957;SDS011;49056;48.352;10.926;2022-12-05T09:12:40;2.03;;;1.17;;
62957;SDS011;49056;48.352;10.926;2022-12-05T09:18:00;2.35;;;1.17;;
62957;SDS011;49056;48.352;10.926;2022-12-05T09:23:20;3.60;;;1.07;;
62957;SDS011;49056;48.352;10.926;2022-12-05T09:28:41;2.73;;;1.33;;
62957;SDS011;49056;48.352;10.926;2022-12-05T09:34:02;1.73;;;1.00;;
62957;SDS011;49056;48.352;10.926;2022-12-05T09:39:22;1.47;;;0.90;;
62957;SDS011;49056;48.352;10.926;2022-12-05T09:55:24;2.15;;;1.02;;
62957;SDS011;49056;48.352;10.926;2022-12-05T10:00:44;1.95;;;1.20;;
62957;SDS011;49056;48.352;10.926;2022-12-05T10:06:07;2.97;;;1.10;;
62957;SDS011;49056;48.352;10.926;2022-12-05T10:11:42;2.87;;;1.10;;
62957;SDS011;49056;48.352;10.926;2022-12-05T10:17:17;2.90;;;1.12;;
62957;SDS011;49056;48.352;10.926;2022-12-05T10:22:43;1.98;;;1.00;;
62957;SDS011;49056;48.352;10.926;2022-12-05T10:28:09;2.90;;;1.37;;
62957;SDS011;49056;48.352;10.926;2022-12-05T10:38:52;2.45;;;1.05;;
62957;SDS011;49056;48.352;10.926;2022-12-05T10:44:13;1.30;;;0.90;;
62957;SDS011;49056;48.352;10.926;2022-12-05T10:49:33;2.03;;;1.15;;
62957;SDS011;49056;48.352;10.926;2022-12-05T10:54:55;2.62;;;1.02;;
62957;SDS011;49056;48.352;10.926;2022-12-05T11:00:18;2.37;;;1.15;;
62957;SDS011;49056;48.352;10.926;2022-12-05T11:05:39;1.95;;;0.90;;
62957;SDS011;49056;48.352;10.926;2022-12-05T11:11:01;2.83;;;1.15;;
62957;SDS011;49056;48.352;10.926;2022-12-05T11:21:45;1.80;;;1.10;;
62957;SDS011;49056;48.352;10.926;2022-12-05T11:32:35;1.83;;;0.88;;
62957;SDS011;49056;48.352;10.926;2022-12-05T11:38:02;2.85;;;1.08;;
62957;SDS011;49056;48.352;10.926;2022-12-05T11:49:13;2.65;;;1.12;;
62957;SDS011;49056;48.352;10.926;2022-12-05T12:16:49;2.55;;;1.08;;
62957;SDS011;49056;48.352;10.926;2022-12-05T12:55:35;1.50;;;0.88;;
62957;SDS011;49056;48.352;10.926;2022-12-05T13:06:35;2.05;;;1.05;;
62957;SDS011;49056;48.352;10.926;2022-12-05T13:11:58;1.95;;;0.95;;
62957;SDS011;49056;48.352;10.926;2022-12-05T13:17:19;1.92;;;0.70;;
62957;SDS011;49056;48.352;10.926;2022-12-05T13:22:40;1.10;;;0.57;;
62957;SDS011;49056;48.352;10.926;2022-12-05T13:28:02;0.98;;;0.70;;
62957;SDS011;49056;48.352;10.926;2022-12-05T13:33:28;2.33;;;1.00;;
62957;SDS011;49056;48.352;10.926;2022-12-05T13:38:54;1.87;;;0.98;;
62957;SDS011;49056;48.352;10.926;2022-12-05T13:50:02;0.90;;;0.50;;
62957;SDS011;49056;48.352;10.926;2022-12-05T14:00:43;2.30;;;0.80;;
62957;SDS011;49056;48.352;10.926;2022-12-05T14:06:05;1.00;;;0.70;;
62957;SDS011;49056;48.352;10.926;2022-12-05T14:11:25;1.67;;;0.70;;
62957;SDS011;49056;48.352;10.926;2022-12-05T14:16:46;1.75;;;0.90;;
62957;SDS011;49056;48.352;10.926;2022-12-05T14:28:16;1.75;;;1.10;;
62957;SDS011;49056;48.352;10.926;2022-12-05T14:33:38;2.80;;;1.17;;
62957;SDS011;49056;48.352;10.926;2022-12-05T14:38:58;1.65;;;0.68;;
62957;SDS011;49056;48.352;10.926;2022-12-05T14:44:19;1.33;;;0.70;;
62957;SDS011;49056;48.352;10.926;2022-12-05T14:49:53;2.12;;;0.93;;
62957;SDS011;49056;48.352;10.926;2022-12-05T14:55:14;2.17;;;0.90;;
62957;SDS011;49056;48.352;10.926;2022-12-05T15:00:36;2.62;;;1.17;;
62957;SDS011;49056;48.352;10.926;2022-12-05T15:05:57;1.80;;;0.90;;
62957;SDS011;49056;48.352;10.926;2022-12-05T15:11:19;2.75;;;1.05;;
62957;SDS011;49056;48.352;10.926;2022-12-05T15:16:51;1.95;;;0.70;;
62957;SDS011;49056;48.352;10.926;2022-12-05T15:22:13;1.48;;;0.80;;
62957;SDS011;49056;48.352;10.926;2022-12-05T15:27:34;1.67;;;0.70;;
62957;SDS011;49056;48.352;10.926;2022-12-05T15:32:54;1.40;;;0.73;;
62957;SDS011;49056;48.352;10.926;2022-12-05T15:38:25;1.58;;;0.88;;
62957;SDS011;49056;48.352;10.926;2022-12-05T15:43:54;1.85;;;0.85;;
62957;SDS011;49056;48.352;10.926;2022-12-05T15:49:15;1.77;;;0.82;;
62957;SDS011;49056;48.352;10.926;2022-12-05T15:54:36;1.37;;;0.80;;
62957;SDS011;49056;48.352;10.926;2022-12-05T16:00:02;1.30;;;0.68;;
62957;SDS011;49056;48.352;10.926;2022-12-05T16:05:24;1.20;;;0.60;;
62957;SDS011;49056;48.352;10.926;2022-12-05T16:10:47;1.58;;;0.70;;
62957;SDS011;49056;48.352;10.926;2022-12-05T16:16:09;1.63;;;0.70;;
62957;SDS011;49056;48.352;10.926;2022-12-05T16:21:37;1.55;;;0.70;;
62957;SDS011;49056;48.352;10.926;2022-12-05T16:27:01;1.83;;;0.60;;
62957;SDS011;49056;48.352;10.926;2022-12-05T16:32:23;1.00;;;0.85;;
62957;SDS011;49056;48.352;10.926;2022-12-05T16:37:43;1.25;;;1.10;;
62957;SDS011;49056;48.352;10.926;2022-12-05T16:43:04;0.70;;;0.50;;
62957;SDS011;49056;48.352;10.926;2022-12-05T16:48:28;0.88;;;0.68;;
62957;SDS011;49056;48.352;10.926;2022-12-05T16:53:50;2.00;;;0.75;;
62957;SDS011;49056;48.352;10.926;2022-12-05T16:59:17;2.80;;;0.90;;
62957;SDS011;49056;48.352;10.926;2022-12-05T17:04:40;1.12;;;0.62;;
62957;SDS011;49056;48.352;10.926;2022-12-05T17:10:00;2.60;;;1.05;;
62957;SDS011;49056;48.352;10.926;2022-12-05T17:15:21;1.17;;;0.60;;
62957;SDS011;49056;48.352;10.926;2022-12-05T17:20:42;1.10;;;0.40;;
62957;SDS011;49056;48.352;10.926;2022-12-05T17:26:03;0.70;;;0.57;;
62957;SDS011;49056;48.352;10.926;2022-12-05T17:31:24;0.67;;;0.57;;
62957;SDS011;49056;48.352;10.926;2022-12-05T17:36:44;0.82;;;0.65;;
62957;SDS011;49056;48.352;10.926;2022-12-05T17:42:05;0.98;;;0.88;;
62957;SDS011;49056;48.352;10.926;2022-12-05T17:47:25;0.80;;;0.70;;
62957;SDS011;49056;48.352;10.926;2022-12-05T17:52:46;1.48;;;0.55;;
62957;SDS011;49056;48.352;10.926;2022-12-05T17:58:06;1.23;;;0.68;;
62957;SDS011;49056;48.352;10.926;2022-12-05T18:03:27;1.58;;;0.93;;
62957;SDS011;49056;48.352;10.926;2022-12-05T18:08:47;0.80;;;0.57;;
62957;SDS011;49056;48.352;10.926;2022-12-05T18:14:09;0.98;;;0.40;;
62957;SDS011;49056;48.352;10.926;2022-12-05T18:19:29;1.00;;;0.68;;
62957;SDS011;49056;48.352;10.926;2022-12-05T18:24:50;2.45;;;0.88;;
62957;SDS011;49056;48.352;10.926;2022-12-05T18:30:10;1.30;;;0.70;;
62957;SDS011;49056;48.352;10.926;2022-12-05T18:35:31;1.05;;;0.60;;
62957;SDS011;49056;48.352;10.926;2022-12-05T18:41:01;1.35;;;0.73;;
62957;SDS011;49056;48.352;10.926;2022-12-05T18:46:22;1.50;;;0.88;;
62957;SDS011;49056;48.352;10.926;2022-12-05T18:51:42;1.60;;;0.70;;
62957;SDS011;49056;48.352;10.926;2022-12-05T18:57:02;2.12;;;0.93;;
62957;SDS011;49056;48.352;10.926;2022-12-05T19:02:23;2.90;;;0.93;;
62957;SDS011;49056;48.352;10.926;2022-12-05T19:07:43;0.93;;;0.65;;
62957;SDS011;49056;48.352;10.926;2022-12-05T19:13:05;1.67;;;0.80;;
62957;SDS011;49056;48.352;10.926;2022-12-05T19:18:25;1.77;;;1.00;;
62957;SDS011;49056;48.352;10.926;2022-12-05T19:23:46;1.77;;;0.77;;
62957;SDS011;49056;48.352;10.926;2022-12-05T19:29:06;1.17;;;0.67;;
62957;SDS011;49056;48.352;10.926;2022-12-05T19:34:26;1.62;;;1.05;;
62957;SDS011;49056;48.352;10.926;2022-12-05T19:39:47;1.58;;;0.82;;
62957;SDS011;49056;48.352;10.926;2022-12-05T19:45:09;1.35;;;0.90;;
62957;SDS011;49056;48.352;10.926;2022-12-05T19:50:29;1.57;;;0.87;;
62957;SDS011;49056;48.352;10.926;2022-12-05T19:55:50;2.60;;;1.07;;
62957;SDS011;49056;48.352;10.926;2022-12-05T20:01:14;1.17;;;0.95;;
62957;SDS011;49056;48.352;10.926;2022-12-05T20:06:36;1.12;;;0.75;;
62957;SDS011;49056;48.352;10.926;2022-12-05T20:11:57;1.12;;;0.60;;
62957;SDS011;49056;48.352;10.926;2022-12-05T20:17:17;1.40;;;0.73;;
62957;SDS011;49056;48.352;10.926;2022-12-05T20:22:38;1.25;;;0.73;;
62957;SDS011;49056;48.352;10.926;2022-12-05T20:27:58;1.53;;;1.00;;
62957;SDS011;49056;48.352;10.926;2022-12-05T20:33:18;1.70;;;0.77;;
62957;SDS011;49056;48.352;10.926;2022-12-05T20:38:39;3.25;;;1.17;;
62957;SDS011;49056;48.352;10.926;2022-12-05T20:44:00;1.80;;;0.90;;
62957;SDS011;49056;48.352;10.926;2022-12-05T20:49:20;1.42;;;0.98;;
62957;SDS011;49056;48.352;10.926;2022-12-05T20:54:41;1.27;;;0.73;;
62957;SDS011;49056;48.352;10.926;2022-12-05T21:00:01;1.03;;;0.90;;
62957;SDS011;49056;48.352;10.926;2022-12-05T21:05:22;1.58;;;1.12;;
62957;SDS011;49056;48.352;10.926;2022-12-05T21:10:43;2.08;;;1.05;;
62957;SDS011;49056;48.352;10.926;2022-12-05T21:16:05;1.37;;;0.85;;
62957;SDS011;49056;48.352;10.926;2022-12-05T21:21:26;2.28;;;0.90;;
62957;SDS011;49056;48.352;10.926;2022-12-05T21:26:50;1.50;;;0.95;;
62957;SDS011;49056;48.352;10.926;2022-12-05T21:32:10;3.80;;;1.15;;
62957;SDS011;49056;48.352;10.926;2022-12-05T21:37:30;1.50;;;1.10;;
62957;SDS011;49056;48.352;10.926;2022-12-05T21:42:51;2.23;;;1.07;;
62957;SDS011;49056;48.352;10.926;2022-12-05T21:48:11;2.47;;;1.05;;
62957;SDS011;49056;48.352;10.926;2022-12-05T21:53:32;2.70;;;1.10;;
62957;SDS011;49056;48.352;10.926;2022-12-05T21:58:53;2.28;;;1.05;;
62957;SDS011;49056;48.352;10.926;2022-12-05T22:04:13;1.37;;;0.60;;
62957;SDS011;49056;48.352;10.926;2022-12-05T22:09:33;2.42;;;1.10;;
62957;SDS011;49056;48.352;10.926;2022-12-05T22:14:54;2.03;;;1.05;;
62957;SDS011;49056;48.352;10.926;2022-12-05T22:20:14;1.93;;;1.00;;
62957;SDS011;49056;48.352;10.926;2022-12-05T22:25:34;1.40;;;0.93;;
62957;SDS011;49056;48.352;10.926;2022-12-05T22:30:55;1.97;;;1.00;;
62957;SDS011;49056;48.352;10.926;2022-12-05T22:36:16;2.58;;;0.90;;
62957;SDS011;49056;48.352;10.926;2022-12-05T22:41:37;1.25;;;0.93;;
62957;SDS011;49056;48.352;10.926;2022-12-05T22:46:57;1.67;;;0.95;;
62957;SDS011;49056;48.352;10.926;2022-12-05T22:52:17;2.87;;;1.30;;
62957;SDS011;49056;48.352;10.926;2022-12-05T22:57:38;1.92;;;1.20;;
62957;SDS011;49056;48.352;10.926;2022-12-05T23:02:58;2.13;;;1.20;;
62957;SDS011;49056;48.352;10.926;2022-12-05T23:08:19;1.70;;;1.23;;
62957;SDS011;49056;48.352;10.926;2022-12-05T23:13:39;2.10;;;1.00;;
62957;SDS011;49056;48.352;10.926;2022-12-05T23:19:00;1.12;;;0.73;;
62957;SDS011;49056;48.352;10.926;2022-12-05T23:24:21;2.20;;;1.15;;
62957;SDS011;49056;48.352;10.926;2022-12-05T23:29:41;1.97;;;1.10;;
62957;SDS011;49056;48.352;10.926;2022-12-05T23:35:02;1.60;;;1.00;;
62957;SDS011;49056;48.352;10.926;2022-12-05T23:40:22;2.47;;;1.30;;
62957;SDS011;49056;48.352;10.926;2022-12-05T23:45:43;3.33;;;1.35;;
62957;SDS011;49056;48.352;10.926;2022-12-05T23:51:05;1.70;;;0.90;;
62957;SDS011;49056;48.352;10.926;2022-12-05T23:56:27;3.17;;;1.33;;
